This is the latest recevied weather packets stored in our database for station/object N5XJB. If no packets are shown the sender has not sent any weather packets the latest 10 day(s).
| Time | Temp. | Humidity | Pressure | Rain* | Wind** | Luminosity | Snow |
|---|---|---|---|---|---|---|---|
| 1777925156 | 28.33° C | 53% | 1013.7 hPa | 0 mm | - | 293 W/m² | - |
| 1777924854 | 28.89° C | 52% | 1014.1 hPa | 0 mm | - | 466 W/m² | - |
| 1777924550 | 29.44° C | 53% | 1014.1 hPa | 0 mm | - | 573 W/m² | - |
| 1777922430 | 28.33° C | 53% | 1014.8 hPa | 0 mm | - | 1068 W/m² | - |
| 1777919697 | 28.33° C | 53% | 1015.1 hPa | 0 mm | - | 1026 W/m² | - |
| 1777919396 | 28.33° C | 55% | 1014.8 hPa | 0 mm | - | 383 W/m² | - |
| 1777918486 | 28.89° C | 53% | 1014.8 hPa | 0 mm | - | 355 W/m² | - |
| 1777918185 | 28.33° C | 54% | 1015.1 hPa | 0 mm | - | 1086 W/m² | - |
| 1777917884 | 28.89° C | 51% | 1015.1 hPa | 0 mm | - | 888 W/m² | - |
| 1777917582 | 28.33° C | 50% | 1015.4 hPa | 0 mm | - | 364 W/m² | - |
| 1777916371 | 27.22° C | 54% | 1015.8 hPa | 0 mm | - | 264 W/m² | - |
| 1777916066 | 27.78° C | 54% | 1015.8 hPa | 0 mm | - | 931 W/m² | - |
| 1777915765 | 27.78° C | 54% | 1015.8 hPa | 0 mm | - | 289 W/m² | - |
| 1777915157 | 27.22° C | 56% | 1015.8 hPa | 0 mm | - | 416 W/m² | - |
| 1777914247 | 27.22° C | 55% | 1016.1 hPa | 0 mm | - | 891 W/m² | - |
| 1777913944 | 27.22° C | 56% | 1016.1 hPa | 0 mm | - | 933 W/m² | - |
| 1777913641 | 27.78° C | 54% | 1016.1 hPa | 0 mm | - | 575 W/m² | - |
| 1777913337 | 27.22° C | 55% | 1016.5 hPa | 0 mm | - | 857 W/m² | - |
| 1777912730 | 26.67° C | 54% | 1016.8 hPa | 0 mm | - | 765 W/m² | - |
| 1777912426 | 26.11° C | 58% | 1016.5 hPa | 0 mm | - | 296 W/m² | - |
| 1777912122 | 26.67° C | 55% | 1016.5 hPa | 0 mm | - | 702 W/m² | - |
| 1777911515 | 26.67° C | 55% | 1016.8 hPa | 0 mm | - | 781 W/m² | - |
| 1777910909 | 26.11° C | 57% | 1016.8 hPa | 0 mm | - | 745 W/m² | - |
| 1777910303 | 26.67° C | 56% | 1016.8 hPa | 0 mm | - | 800 W/m² | - |
| 1777910000 | 26.67° C | 58% | 1016.8 hPa | 0 mm | - | 744 W/m² | - |
* Rain latest hour (hover to see other rain measurements)
** Current wind speed in m/s (hover to see current wind gust speed)